createdAt,value
2023-02-12T00:00:29.017Z,0
2023-02-12T00:01:29.315Z,0
2023-02-12T00:02:29.344Z,0
2023-02-12T00:03:29.125Z,0
2023-02-12T00:04:28.853Z,0
2023-02-12T00:05:28.848Z,0
2023-02-12T00:06:28.798Z,0
2023-02-12T00:07:28.774Z,0
2023-02-12T00:08:28.752Z,0
2023-02-12T00:09:28.742Z,0
2023-02-12T00:10:28.788Z,0
2023-02-12T00:11:28.626Z,0
2023-02-12T00:12:28.645Z,0
2023-02-12T00:13:28.596Z,0
2023-02-12T00:14:28.527Z,0
2023-02-12T00:15:28.542Z,0
2023-02-12T00:16:28.642Z,0
2023-02-12T00:17:28.453Z,0
2023-02-12T00:18:28.405Z,0
2023-02-12T00:19:28.362Z,0
2023-02-12T00:20:28.344Z,0
2023-02-12T00:21:28.344Z,0
2023-02-12T00:22:28.266Z,0
2023-02-12T00:23:28.245Z,0
2023-02-12T00:24:28.227Z,0
2023-02-12T00:25:28.178Z,0
2023-02-12T00:26:27.951Z,0
2023-02-12T00:27:28.126Z,0
2023-02-12T00:28:28.358Z,0
2023-02-12T00:29:28.196Z,0
2023-02-12T00:30:28.181Z,0
2023-02-12T00:31:28.809Z,0
2023-02-12T00:32:28.023Z,0
2023-02-12T00:33:27.956Z,0
2023-02-12T00:34:27.927Z,0
2023-02-12T00:35:27.929Z,0
2023-02-12T00:36:27.854Z,0
2023-02-12T00:37:27.842Z,0
2023-02-12T00:38:27.806Z,0
2023-02-12T00:39:27.816Z,0
2023-02-12T00:40:27.720Z,0
2023-02-12T00:41:27.709Z,0
2023-02-12T00:42:27.696Z,0
2023-02-12T00:43:27.625Z,0
2023-02-12T00:44:27.587Z,0
2023-02-12T00:45:27.585Z,0
2023-02-12T00:46:28.106Z,0
2023-02-12T00:47:27.510Z,0
2023-02-12T00:48:27.514Z,0
2023-02-12T00:49:27.525Z,0
2023-02-12T00:50:29.514Z,0
2023-02-12T00:51:27.180Z,0
2023-02-12T00:52:27.329Z,0
2023-02-12T00:53:27.331Z,0
2023-02-12T00:54:27.279Z,0
2023-02-12T00:55:27.241Z,0
2023-02-12T00:56:26.980Z,0
2023-02-12T00:57:27.200Z,0
2023-02-12T00:58:27.293Z,0
2023-02-12T00:59:27.122Z,0
2023-02-12T01:00:27.091Z,0
2023-02-12T01:01:27.304Z,0
2023-02-12T01:02:27.039Z,0
2023-02-12T01:03:26.987Z,0
2023-02-12T01:04:26.994Z,0
2023-02-12T01:05:27.218Z,0
2023-02-12T01:06:26.892Z,0
2023-02-12T01:07:26.868Z,0
2023-02-12T01:08:26.844Z,0
2023-02-12T01:09:26.825Z,0
2023-02-12T01:10:26.780Z,0
2023-02-12T01:11:26.780Z,0
2023-02-12T01:12:26.753Z,0
2023-02-12T01:13:26.692Z,0
2023-02-12T01:14:26.693Z,0
2023-02-12T01:15:26.649Z,0
2023-02-12T01:16:26.783Z,0
2023-02-12T01:17:26.576Z,0
2023-02-12T01:18:26.518Z,0
2023-02-12T01:19:26.503Z,0
2023-02-12T01:20:26.533Z,0
2023-02-12T01:21:26.507Z,0
2023-02-12T01:22:26.406Z,0
2023-02-12T01:23:26.371Z,0
2023-02-12T01:24:26.350Z,0
2023-02-12T01:25:27.869Z,0
2023-02-12T01:26:26.355Z,0
2023-02-12T01:27:26.248Z,0
2023-02-12T01:28:26.458Z,0
2023-02-12T01:29:26.189Z,0
2023-02-12T01:30:26.210Z,0
2023-02-12T01:31:26.758Z,0
2023-02-12T01:32:26.195Z,0
2023-02-12T01:33:26.110Z,0
2023-02-12T01:34:26.050Z,0
2023-02-12T01:35:26.000Z,0
2023-02-12T01:36:25.997Z,0
2023-02-12T01:37:25.953Z,0
2023-02-12T01:38:25.934Z,0
2023-02-12T01:39:25.887Z,0
2023-02-12T01:40:25.845Z,0
2023-02-12T01:41:25.827Z,0
2023-02-12T01:42:25.794Z,0
2023-02-12T01:43:25.757Z,0
2023-02-12T01:44:25.949Z,0
2023-02-12T01:45:25.704Z,0
2023-02-12T01:46:25.934Z,0
2023-02-12T01:47:25.619Z,0
2023-02-12T01:48:25.592Z,0
2023-02-12T01:49:25.603Z,0
2023-02-12T01:50:25.542Z,0
2023-02-12T01:51:25.499Z,0
2023-02-12T01:52:25.503Z,0
2023-02-12T01:53:25.432Z,0
2023-02-12T01:54:25.408Z,0
2023-02-12T01:55:25.531Z,0
2023-02-12T01:56:25.347Z,0
2023-02-12T01:57:25.352Z,0
2023-02-12T01:58:25.284Z,0
2023-02-12T01:59:25.259Z,0
2023-02-12T02:00:25.245Z,0
2023-02-12T02:01:25.419Z,0
2023-02-12T02:02:25.182Z,0
2023-02-12T02:03:25.427Z,0
2023-02-12T02:04:25.123Z,0
2023-02-12T02:05:25.125Z,0
2023-02-12T02:06:24.808Z,0
2023-02-12T02:07:25.003Z,0
2023-02-12T02:08:24.754Z,0
2023-02-12T02:09:24.928Z,0
2023-02-12T02:10:24.931Z,0
2023-02-12T02:11:24.878Z,0
2023-02-12T02:12:24.856Z,0
2023-02-12T02:13:24.843Z,0
2023-02-12T02:14:24.768Z,0
2023-02-12T02:15:24.772Z,0
2023-02-12T02:16:24.946Z,0
2023-02-12T02:17:24.698Z,0
2023-02-12T02:18:24.690Z,0
2023-02-12T02:19:24.617Z,0
2023-02-12T02:20:24.600Z,0
2023-02-12T02:21:24.574Z,0
2023-02-12T02:22:24.524Z,0
2023-02-12T02:23:24.511Z,0
2023-02-12T02:24:24.500Z,0
2023-02-12T02:25:24.444Z,0
2023-02-12T02:26:24.406Z,0
2023-02-12T02:27:24.383Z,0
2023-02-12T02:28:24.600Z,0
2023-02-12T02:29:24.322Z,0
2023-02-12T02:30:24.272Z,0
2023-02-12T02:31:24.909Z,0
2023-02-12T02:32:24.262Z,0
2023-02-12T02:33:24.183Z,0
2023-02-12T02:34:24.168Z,0
2023-02-12T02:35:24.123Z,0
2023-02-12T02:36:27.245Z,0
2023-02-12T02:37:24.077Z,0
2023-02-12T02:38:24.064Z,0
2023-02-12T02:39:23.988Z,0
2023-02-12T02:40:23.980Z,0
2023-02-12T02:41:23.936Z,0
2023-02-12T02:42:23.915Z,0
2023-02-12T02:43:23.865Z,0
2023-02-12T02:44:23.832Z,0
2023-02-12T02:45:23.811Z,0
2023-02-12T02:46:24.067Z,0
2023-02-12T02:47:23.772Z,0
2023-02-12T02:48:23.713Z,0
2023-02-12T02:49:23.674Z,0
2023-02-12T02:50:23.682Z,0
2023-02-12T02:51:23.720Z,0
2023-02-12T02:52:23.631Z,0
2023-02-12T02:53:23.570Z,0
2023-02-12T02:54:23.545Z,0
2023-02-12T02:55:23.492Z,0
2023-02-12T02:56:23.489Z,0
2023-02-12T02:57:23.430Z,0
2023-02-12T02:58:23.432Z,0
2023-02-12T02:59:23.363Z,0
2023-02-12T03:00:23.335Z,0
2023-02-12T03:01:23.701Z,0
2023-02-12T03:02:23.267Z,0
2023-02-12T03:03:23.547Z,0
2023-02-12T03:04:23.207Z,0
2023-02-12T03:05:23.197Z,0
2023-02-12T03:06:23.173Z,0
2023-02-12T03:07:23.126Z,0
2023-02-12T03:08:23.107Z,0
2023-02-12T03:09:23.120Z,0
2023-02-12T03:10:23.022Z,0
2023-02-12T03:11:22.988Z,0
2023-02-12T03:12:22.992Z,0
2023-02-12T03:13:22.912Z,0
2023-02-12T03:14:22.902Z,0
2023-02-12T03:15:22.957Z,0
2023-02-12T03:16:23.011Z,0
2023-02-12T03:17:22.791Z,0
2023-02-12T03:18:22.772Z,0
2023-02-12T03:19:22.762Z,0
2023-02-12T03:20:22.720Z,0
2023-02-12T03:21:22.668Z,0
2023-02-12T03:22:22.699Z,0
2023-02-12T03:23:22.600Z,0
2023-02-12T03:24:22.640Z,0
2023-02-12T03:25:22.556Z,0
2023-02-12T03:26:22.515Z,0
2023-02-12T03:27:22.474Z,0
2023-02-12T03:28:22.924Z,0
2023-02-12T03:29:22.441Z,0
2023-02-12T03:30:22.411Z,0
2023-02-12T03:31:22.629Z,0
2023-02-12T03:32:22.337Z,0
2023-02-12T03:33:22.313Z,0
2023-02-12T03:34:22.287Z,0
2023-02-12T03:35:22.270Z,0
2023-02-12T03:36:22.221Z,0
2023-02-12T03:37:22.199Z,0
2023-02-12T03:38:22.171Z,0
2023-02-12T03:39:22.134Z,0
2023-02-12T03:40:22.172Z,0
2023-02-12T03:41:22.058Z,0
2023-02-12T03:42:21.798Z,0
2023-02-12T03:43:21.971Z,0
2023-02-12T03:44:22.008Z,0
2023-02-12T03:45:21.728Z,0
2023-02-12T03:46:22.133Z,0
2023-02-12T03:47:21.856Z,0
2023-02-12T03:48:21.834Z,0
2023-02-12T03:49:21.807Z,0
2023-02-12T03:50:21.796Z,0
2023-02-12T03:51:21.776Z,0
2023-02-12T03:52:21.737Z,0
2023-02-12T03:53:21.692Z,0
2023-02-12T03:54:21.660Z,0
2023-02-12T03:55:21.636Z,0
2023-02-12T03:56:21.596Z,0
2023-02-12T03:57:21.549Z,0
2023-02-12T03:58:21.502Z,0
2023-02-12T03:59:21.499Z,0
2023-02-12T04:00:21.499Z,0
2023-02-12T04:01:21.889Z,0
2023-02-12T04:02:21.673Z,0
2023-02-12T04:03:21.126Z,0
2023-02-12T04:04:21.644Z,0
2023-02-12T04:05:21.322Z,0
2023-02-12T04:06:21.252Z,0
2023-02-12T04:07:21.282Z,0
2023-02-12T04:08:21.191Z,0
2023-02-12T04:09:21.180Z,0
2023-02-12T04:10:21.115Z,0
2023-02-12T04:11:21.100Z,0
2023-02-12T04:12:21.096Z,0
2023-02-12T04:13:21.034Z,0
2023-02-12T04:14:21.278Z,0
2023-02-12T04:15:21.272Z,0
2023-02-12T04:16:22.054Z,0
2023-02-12T04:17:21.480Z,0
2023-02-12T04:18:20.958Z,0
2023-02-12T04:19:20.875Z,0
2023-02-12T04:20:20.826Z,0
2023-02-12T04:21:20.581Z,0
2023-02-12T04:22:20.897Z,0
2023-02-12T04:23:20.749Z,0
2023-02-12T04:24:20.685Z,0
2023-02-12T04:25:20.676Z,0
2023-02-12T04:26:20.660Z,0
2023-02-12T04:27:20.624Z,0
2023-02-12T04:28:20.752Z,0
2023-02-12T04:29:20.549Z,0
2023-02-12T04:30:20.492Z,0
2023-02-12T04:31:21.082Z,0
2023-02-12T04:32:20.468Z,0
2023-02-12T04:33:20.408Z,0
2023-02-12T04:34:20.399Z,0
2023-02-12T04:35:20.344Z,0
2023-02-12T04:36:20.343Z,0
2023-02-12T04:37:20.294Z,0
2023-02-12T04:38:20.248Z,0
2023-02-12T04:39:20.256Z,0
2023-02-12T04:40:20.318Z,0
2023-02-12T04:41:20.188Z,0
2023-02-12T04:42:20.155Z,0
2023-02-12T04:43:20.089Z,0
2023-02-12T04:44:20.109Z,0
2023-02-12T04:45:20.037Z,0
2023-02-12T04:46:19.992Z,0
2023-02-12T04:47:20.022Z,0
2023-02-12T04:48:19.730Z,0
2023-02-12T04:49:19.906Z,0
2023-02-12T04:50:19.881Z,0
2023-02-12T04:51:19.861Z,0
2023-02-12T04:52:19.824Z,0
2023-02-12T04:53:19.801Z,0
2023-02-12T04:54:19.825Z,0
2023-02-12T04:55:19.763Z,0
2023-02-12T04:56:19.708Z,0
2023-02-12T04:57:19.690Z,0
2023-02-12T04:58:19.659Z,0
2023-02-12T04:59:19.607Z,0
2023-02-12T05:00:19.609Z,0
2023-02-12T05:01:19.879Z,0
2023-02-12T05:02:19.504Z,0
2023-02-12T05:03:19.464Z,0
2023-02-12T05:04:19.497Z,0
2023-02-12T05:05:19.645Z,0
2023-02-12T05:06:19.387Z,0
2023-02-12T05:07:19.347Z,0
2023-02-12T05:08:19.304Z,0
2023-02-12T05:09:19.316Z,0
2023-02-12T05:10:19.012Z,0
2023-02-12T05:11:19.243Z,0
2023-02-12T05:12:19.182Z,0
2023-02-12T05:13:18.907Z,0
2023-02-12T05:14:19.216Z,0
2023-02-12T05:15:19.091Z,0
2023-02-12T05:16:19.285Z,0
2023-02-12T05:17:19.057Z,0
2023-02-12T05:18:18.991Z,0
2023-02-12T05:19:19.003Z,0
2023-02-12T05:20:18.961Z,0
2023-02-12T05:21:18.893Z,0
2023-02-12T05:22:18.881Z,0
2023-02-12T05:23:18.856Z,0
2023-02-12T05:24:18.812Z,0
2023-02-12T05:25:18.856Z,0
2023-02-12T05:26:18.747Z,0
2023-02-12T05:27:18.750Z,0
2023-02-12T05:28:18.698Z,0
2023-02-12T05:29:18.701Z,0
2023-02-12T05:30:18.686Z,0
2023-02-12T05:31:21.785Z,0
2023-02-12T05:32:19.064Z,0
2023-02-12T05:33:18.533Z,0
2023-02-12T05:34:18.521Z,0
2023-02-12T05:35:18.451Z,0
2023-02-12T05:36:18.477Z,0
2023-02-12T05:37:18.408Z,0
2023-02-12T05:38:18.394Z,0
2023-02-12T05:39:18.349Z,0
2023-02-12T05:40:18.316Z,0
2023-02-12T05:41:18.314Z,0
2023-02-12T05:42:18.245Z,0
2023-02-12T05:43:18.244Z,0
2023-02-12T05:44:17.938Z,0
2023-02-12T05:45:18.146Z,0
2023-02-12T05:46:18.272Z,0
2023-02-12T05:47:18.153Z,0
2023-02-12T05:48:18.042Z,0
2023-02-12T05:49:18.021Z,0
2023-02-12T05:50:17.978Z,0
2023-02-12T05:51:17.978Z,0
2023-02-12T05:52:17.967Z,0
2023-02-12T05:53:17.903Z,0
2023-02-12T05:54:17.872Z,0
2023-02-12T05:55:17.850Z,0
2023-02-12T05:56:17.814Z,0
2023-02-12T05:57:17.781Z,0
2023-02-12T05:58:20.738Z,0
2023-02-12T05:59:17.761Z,0
2023-02-12T06:00:17.706Z,0
2023-02-12T06:01:17.647Z,0
2023-02-12T06:02:17.785Z,0
2023-02-12T06:03:17.603Z,0
2023-02-12T06:04:18.142Z,0
2023-02-12T06:05:17.543Z,0
2023-02-12T06:06:17.485Z,0
2023-02-12T06:07:17.466Z,0
2023-02-12T06:08:17.443Z,0
2023-02-12T06:09:17.407Z,0
2023-02-12T06:10:17.409Z,0
2023-02-12T06:11:17.363Z,0
2023-02-12T06:12:17.296Z,0
2023-02-12T06:13:17.264Z,0
2023-02-12T06:14:17.244Z,0
2023-02-12T06:15:17.262Z,0
2023-02-12T06:16:17.385Z,0
2023-02-12T06:17:17.166Z,4
2023-02-12T06:18:16.901Z,0
2023-02-12T06:19:17.095Z,0
2023-02-12T06:20:17.067Z,4
2023-02-12T06:21:17.010Z,0
2023-02-12T06:22:16.975Z,4
2023-02-12T06:23:16.951Z,4
2023-02-12T06:24:16.959Z,4
2023-02-12T06:25:16.907Z,4
2023-02-12T06:26:16.620Z,4
2023-02-12T06:27:16.819Z,8
2023-02-12T06:28:17.207Z,12
2023-02-12T06:29:16.763Z,8
2023-02-12T06:30:16.744Z,12
2023-02-12T06:31:17.270Z,16
2023-02-12T06:32:17.084Z,20
2023-02-12T06:33:16.628Z,24
2023-02-12T06:34:16.656Z,24
2023-02-12T06:35:16.608Z,32
2023-02-12T06:36:16.567Z,32
2023-02-12T06:37:16.506Z,40
2023-02-12T06:38:16.529Z,48
2023-02-12T06:39:16.458Z,56
2023-02-12T06:40:16.463Z,60
2023-02-12T06:41:16.243Z,68
2023-02-12T06:42:16.384Z,76
2023-02-12T06:43:16.095Z,84
2023-02-12T06:44:16.304Z,96
2023-02-12T06:45:16.263Z,108
2023-02-12T06:46:16.460Z,116
2023-02-12T06:47:16.311Z,132
2023-02-12T06:48:16.169Z,148
2023-02-12T06:49:16.153Z,168
2023-02-12T06:50:16.147Z,188
2023-02-12T06:51:15.877Z,212
2023-02-12T06:52:16.045Z,240
2023-02-12T06:53:16.007Z,268
2023-02-12T06:54:16.003Z,300
2023-02-12T06:55:15.955Z,332
2023-02-12T06:56:16.121Z,364
2023-02-12T06:57:15.882Z,392
2023-02-12T06:58:15.855Z,416
2023-02-12T06:59:15.840Z,448
2023-02-12T07:00:15.819Z,484
2023-02-12T07:01:16.165Z,520
2023-02-12T07:02:15.729Z,560
2023-02-12T07:03:15.726Z,596
2023-02-12T07:04:16.242Z,640
2023-02-12T07:05:15.732Z,672
2023-02-12T07:06:15.670Z,712
2023-02-12T07:07:15.605Z,748
2023-02-12T07:08:15.556Z,788
2023-02-12T07:09:15.532Z,836
2023-02-12T07:10:15.499Z,884
2023-02-12T07:11:15.511Z,936
2023-02-12T07:12:15.475Z,992
2023-02-12T07:13:15.375Z,1052
2023-02-12T07:14:15.368Z,1108
2023-02-12T07:15:15.328Z,1144
2023-02-12T07:16:15.658Z,1180
2023-02-12T07:17:15.256Z,1220
2023-02-12T07:18:15.223Z,1252
2023-02-12T07:19:15.231Z,1272
2023-02-12T07:20:15.160Z,1288
2023-02-12T07:21:15.180Z,1304
2023-02-12T07:22:15.123Z,1324
2023-02-12T07:23:15.105Z,1344
2023-02-12T07:24:15.142Z,1388
2023-02-12T07:25:15.037Z,1448
2023-02-12T07:26:15.021Z,1500
2023-02-12T07:27:15.004Z,1552
2023-02-12T07:28:15.146Z,1612
2023-02-12T07:29:14.909Z,1656
2023-02-12T07:30:14.935Z,1676
2023-02-12T07:31:15.844Z,1704
2023-02-12T07:32:15.276Z,1760
2023-02-12T07:33:14.517Z,1840
2023-02-12T07:34:14.732Z,1924
2023-02-12T07:35:14.731Z,2016
2023-02-12T07:36:14.432Z,2100
2023-02-12T07:37:14.689Z,2188
2023-02-12T07:38:14.624Z,2288
2023-02-12T07:39:14.603Z,2396
2023-02-12T07:40:14.552Z,2520
2023-02-12T07:41:17.577Z,2656
2023-02-12T07:42:14.480Z,2772
2023-02-12T07:43:14.458Z,2896
2023-02-12T07:44:14.259Z,3016
2023-02-12T07:45:14.397Z,3136
2023-02-12T07:46:14.804Z,3248
2023-02-12T07:47:14.331Z,3348
2023-02-12T07:48:14.298Z,3440
2023-02-12T07:49:14.262Z,3540
2023-02-12T07:50:14.254Z,3668
2023-02-12T07:51:14.236Z,3804
2023-02-12T07:52:16.998Z,3948
2023-02-12T07:53:14.135Z,4040
2023-02-12T07:54:14.010Z,4092
2023-02-12T07:55:14.109Z,4100
2023-02-12T07:56:13.816Z,4084
2023-02-12T07:57:14.020Z,4080
2023-02-12T07:58:13.993Z,4088
2023-02-12T07:59:13.955Z,4088
2023-02-12T08:00:13.959Z,4076
2023-02-12T08:01:13.906Z,4048
2023-02-12T08:02:14.186Z,4020
2023-02-12T08:03:13.831Z,4008
2023-02-12T08:04:14.247Z,4004
2023-02-12T08:05:13.787Z,4020
2023-02-12T08:06:13.827Z,4016
2023-02-12T08:07:13.818Z,3996
2023-02-12T08:08:13.667Z,3968
2023-02-12T08:09:13.643Z,3940
2023-02-12T08:10:13.675Z,3924
2023-02-12T08:11:13.617Z,3912
2023-02-12T08:12:13.558Z,3908
2023-02-12T08:13:13.285Z,3908
2023-02-12T08:14:13.513Z,3888
2023-02-12T08:15:13.471Z,3852
2023-02-12T08:16:13.738Z,3796
2023-02-12T08:17:13.396Z,3764
2023-02-12T08:18:13.371Z,3752
2023-02-12T08:19:29.383Z,3752
2023-02-12T08:20:13.322Z,3744
2023-02-12T08:21:13.308Z,3692
2023-02-12T08:22:13.252Z,3604
2023-02-12T08:23:19.229Z,3520
2023-02-12T08:24:13.229Z,3496
2023-02-12T08:25:13.174Z,3516
2023-02-12T08:26:13.158Z,3584
2023-02-12T08:27:13.124Z,3636
2023-02-12T08:28:13.260Z,3672
2023-02-12T08:29:13.047Z,3684
2023-02-12T08:30:15.371Z,3696
2023-02-12T08:31:13.244Z,3704
2023-02-12T08:32:13.359Z,3720
2023-02-12T08:33:12.929Z,3740
2023-02-12T08:34:12.902Z,3768
2023-02-12T08:35:12.850Z,3804
2023-02-12T08:36:12.914Z,3864
2023-02-12T08:37:12.850Z,3920
2023-02-12T08:38:12.792Z,3952
2023-02-12T08:39:12.770Z,3968
2023-02-12T08:40:12.752Z,3976
2023-02-12T08:41:12.806Z,4008
2023-02-12T08:42:12.708Z,4056
2023-02-12T08:43:12.644Z,4112
2023-02-12T08:44:12.608Z,4148
2023-02-12T08:45:12.560Z,4180
2023-02-12T08:46:12.877Z,4208
2023-02-12T08:47:12.564Z,4232
2023-02-12T08:48:12.510Z,4240
2023-02-12T08:49:12.495Z,4212
2023-02-12T08:50:12.422Z,4164
2023-02-12T08:51:12.421Z,4116
2023-02-12T08:52:12.373Z,4116
2023-02-12T08:53:12.319Z,4148
2023-02-12T08:54:12.321Z,4188
2023-02-12T08:55:12.032Z,4220
2023-02-12T08:56:12.062Z,4224
2023-02-12T08:57:12.242Z,4232
2023-02-12T08:58:12.209Z,4248
2023-02-12T08:59:12.171Z,4276
2023-02-12T09:00:11.884Z,4292
2023-02-12T09:01:12.310Z,4276
2023-02-12T09:02:12.341Z,4276
2023-02-12T09:03:12.036Z,4292
2023-02-12T09:04:12.044Z,4316
2023-02-12T09:05:11.974Z,4324
2023-02-12T09:06:11.955Z,4304
2023-02-12T09:07:15.347Z,4280
2023-02-12T09:08:11.884Z,4292
2023-02-12T09:09:11.869Z,4352
2023-02-12T09:10:11.816Z,4448
2023-02-12T09:11:11.811Z,4548
2023-02-12T09:12:11.769Z,4636
2023-02-12T09:13:11.736Z,4724
2023-02-12T09:14:11.728Z,4848
2023-02-12T09:15:11.689Z,5040
2023-02-12T09:16:11.659Z,5280
2023-02-12T09:17:11.955Z,5520
2023-02-12T09:18:11.582Z,5708
2023-02-12T09:19:11.576Z,5848
2023-02-12T09:20:11.559Z,5980
2023-02-12T09:21:11.553Z,6192
2023-02-12T09:22:11.568Z,6564
2023-02-12T09:23:11.429Z,7092
2023-02-12T09:24:11.401Z,7568
2023-02-12T09:25:11.364Z,7780
2023-02-12T09:26:11.340Z,7712
2023-02-12T09:27:11.319Z,7528
2023-02-12T09:28:11.431Z,7376
2023-02-12T09:29:11.261Z,7260
2023-02-12T09:30:11.259Z,7184
2023-02-12T09:31:11.957Z,7244
2023-02-12T09:32:11.444Z,7440
2023-02-12T09:33:11.137Z,7632
2023-02-12T09:34:11.160Z,7704
2023-02-12T09:35:11.080Z,7692
2023-02-12T09:36:11.109Z,7780
2023-02-12T09:37:11.014Z,8040
2023-02-12T09:38:10.746Z,8400
2023-02-12T09:39:10.974Z,8728
2023-02-12T09:40:10.958Z,8944
2023-02-12T09:41:10.899Z,9052
2023-02-12T09:42:10.874Z,9052
2023-02-12T09:43:10.846Z,8924
2023-02-12T09:44:10.844Z,8700
2023-02-12T09:45:10.792Z,8456
2023-02-12T09:46:10.920Z,8236
2023-02-12T09:47:10.664Z,8040
2023-02-12T09:48:10.683Z,7848
2023-02-12T09:49:10.663Z,7676
2023-02-12T09:50:10.638Z,7532
2023-02-12T09:51:10.631Z,7488
2023-02-12T09:52:10.613Z,7552
2023-02-12T09:53:10.587Z,7724
2023-02-12T09:54:10.530Z,7976
2023-02-12T09:55:10.489Z,8368
2023-02-12T09:56:10.495Z,8872
2023-02-12T09:57:10.453Z,9432
2023-02-12T09:58:10.415Z,9996
2023-02-12T09:59:10.383Z,10512
2023-02-12T10:00:10.438Z,10940
2023-02-12T10:01:10.454Z,11232
2023-02-12T10:02:10.316Z,11376
2023-02-12T10:03:12.622Z,11368
2023-02-12T10:04:10.530Z,11184
2023-02-12T10:05:10.634Z,10792
2023-02-12T10:06:10.246Z,10280
2023-02-12T10:07:10.142Z,9720
2023-02-12T10:08:10.136Z,9216
2023-02-12T10:09:10.113Z,8936
2023-02-12T10:10:12.690Z,8960
2023-02-12T10:11:10.030Z,9264
2023-02-12T10:12:09.996Z,9796
2023-02-12T10:13:09.726Z,10440
2023-02-12T10:14:09.970Z,11100
2023-02-12T10:15:09.670Z,11720
2023-02-12T10:16:10.148Z,12372
2023-02-12T10:17:09.884Z,13020
2023-02-12T10:18:09.858Z,13528
2023-02-12T10:19:09.816Z,13764
2023-02-12T10:20:09.817Z,13852
2023-02-12T10:21:09.755Z,13844
2023-02-12T10:22:09.716Z,13728
2023-02-12T10:23:09.704Z,13604
2023-02-12T10:24:09.740Z,13580
2023-02-12T10:25:09.701Z,13692
2023-02-12T10:26:09.614Z,13836
2023-02-12T10:27:09.568Z,13864
2023-02-12T10:28:09.760Z,13740
2023-02-12T10:29:09.767Z,13664
2023-02-12T10:30:09.607Z,13708
2023-02-12T10:31:10.023Z,13808
2023-02-12T10:32:09.541Z,13896
2023-02-12T10:33:09.426Z,13768
2023-02-12T10:34:09.431Z,13328
2023-02-12T10:35:09.368Z,12764
2023-02-12T10:36:09.325Z,12320
2023-02-12T10:37:09.284Z,12012
2023-02-12T10:38:09.270Z,11880
2023-02-12T10:39:09.228Z,11844
2023-02-12T10:40:09.239Z,11844
2023-02-12T10:41:09.376Z,11928
2023-02-12T10:42:09.157Z,12100
2023-02-12T10:43:10.621Z,12212
2023-02-12T10:44:09.577Z,12164
2023-02-12T10:45:09.072Z,12084
2023-02-12T10:46:09.228Z,12004
2023-02-12T10:47:09.109Z,11916
2023-02-12T10:48:08.993Z,11832
2023-02-12T10:49:08.959Z,11836
2023-02-12T10:50:09.022Z,11980
2023-02-12T10:51:08.926Z,12204
2023-02-12T10:52:08.878Z,12384
2023-02-12T10:53:08.837Z,12416
2023-02-12T10:54:10.146Z,12296
2023-02-12T10:55:08.776Z,12132
2023-02-12T10:56:08.771Z,12080
2023-02-12T10:57:08.739Z,12308
2023-02-12T10:58:08.717Z,12804
2023-02-12T10:59:08.468Z,13492
2023-02-12T11:00:08.669Z,14288
2023-02-12T11:01:08.685Z,14988
2023-02-12T11:02:08.860Z,15468
2023-02-12T11:03:08.598Z,15496
2023-02-12T11:04:14.566Z,14936
2023-02-12T11:05:08.966Z,14112
2023-02-12T11:06:08.540Z,13436
2023-02-12T11:07:08.566Z,13188
2023-02-12T11:08:08.406Z,13180
2023-02-12T11:09:08.399Z,13280
2023-02-12T11:10:08.269Z,13288
2023-02-12T11:11:08.346Z,13340
2023-02-12T11:12:08.373Z,13568
2023-02-12T11:13:08.292Z,13824
2023-02-12T11:14:08.277Z,13852
2023-02-12T11:15:08.258Z,13768
2023-02-12T11:16:08.619Z,13508
2023-02-12T11:17:08.166Z,12960
2023-02-12T11:18:10.224Z,12508
2023-02-12T11:19:08.194Z,12196
2023-02-12T11:20:08.086Z,11920
2023-02-12T11:21:08.190Z,11692
2023-02-12T11:22:08.055Z,11496
2023-02-12T11:23:08.068Z,11396
2023-02-12T11:24:09.796Z,11628
2023-02-12T11:25:07.783Z,12048
2023-02-12T11:26:07.704Z,12244
2023-02-12T11:27:07.890Z,12172
2023-02-12T11:28:08.350Z,11852
2023-02-12T11:29:08.367Z,11300
2023-02-12T11:30:07.817Z,10684
2023-02-12T11:31:08.344Z,10352
2023-02-12T11:32:08.087Z,10200
2023-02-12T11:33:07.725Z,10140
2023-02-12T11:34:07.727Z,10256
2023-02-12T11:35:07.676Z,10532
2023-02-12T11:36:12.248Z,11044
2023-02-12T11:37:07.748Z,11528
2023-02-12T11:38:07.639Z,12056
2023-02-12T11:39:07.606Z,12572
2023-02-12T11:40:07.539Z,13092
2023-02-12T11:41:07.538Z,13684
2023-02-12T11:42:07.620Z,14232
2023-02-12T11:43:07.466Z,14432
2023-02-12T11:44:07.466Z,14360
2023-02-12T11:45:07.590Z,14068
2023-02-12T11:46:08.159Z,13752
2023-02-12T11:47:07.493Z,13324
2023-02-12T11:48:07.345Z,12824
2023-02-12T11:49:07.286Z,12396
2023-02-12T11:50:07.303Z,12068
2023-02-12T11:51:07.249Z,11840
2023-02-12T11:52:07.227Z,11760
2023-02-12T11:53:06.979Z,11920
2023-02-12T11:54:07.248Z,12256
2023-02-12T11:55:07.175Z,12584
2023-02-12T11:56:08.256Z,12668
2023-02-12T11:57:07.111Z,12464
2023-02-12T11:58:07.065Z,12172
2023-02-12T11:59:07.020Z,11964
2023-02-12T12:00:07.040Z,11824
2023-02-12T12:01:07.003Z,11624
2023-02-12T12:02:06.917Z,11312
2023-02-12T12:03:07.174Z,11056
2023-02-12T12:04:06.938Z,10972
2023-02-12T12:05:06.880Z,10836
2023-02-12T12:06:06.840Z,10708
2023-02-12T12:07:06.996Z,10700
2023-02-12T12:08:06.850Z,10736
2023-02-12T12:09:06.533Z,10640
2023-02-12T12:10:06.529Z,10364
2023-02-12T12:11:06.522Z,10008
2023-02-12T12:12:06.699Z,9784
2023-02-12T12:13:06.669Z,9784
2023-02-12T12:14:06.615Z,9848
2023-02-12T12:15:06.604Z,9784
2023-02-12T12:16:06.752Z,9636
2023-02-12T12:17:06.536Z,9472
2023-02-12T12:18:06.498Z,9292
2023-02-12T12:19:06.616Z,9108
2023-02-12T12:20:06.484Z,8976
2023-02-12T12:21:06.420Z,8944
2023-02-12T12:22:06.393Z,9000
2023-02-12T12:23:06.400Z,9068
2023-02-12T12:24:06.356Z,9068
2023-02-12T12:25:08.706Z,8968
2023-02-12T12:26:06.321Z,8872
2023-02-12T12:27:06.284Z,8796
2023-02-12T12:28:06.301Z,8768
2023-02-12T12:29:06.210Z,8808
2023-02-12T12:30:05.924Z,8924
2023-02-12T12:31:06.366Z,9060
2023-02-12T12:32:06.464Z,9100
2023-02-12T12:33:06.097Z,9036
2023-02-12T12:34:06.060Z,8948
2023-02-12T12:35:06.028Z,8932
2023-02-12T12:36:06.385Z,8948
2023-02-12T12:37:06.002Z,8932
2023-02-12T12:38:05.987Z,8924
2023-02-12T12:39:05.991Z,8924
2023-02-12T12:40:06.013Z,8844
2023-02-12T12:41:05.932Z,8784
2023-02-12T12:42:05.866Z,8732
2023-02-12T12:43:05.660Z,8692
2023-02-12T12:44:05.795Z,8620
2023-02-12T12:45:05.782Z,8516
2023-02-12T12:46:07.048Z,8404
2023-02-12T12:47:05.700Z,8296
2023-02-12T12:48:05.754Z,8176
2023-02-12T12:49:05.696Z,8032
2023-02-12T12:50:05.383Z,7904
2023-02-12T12:51:05.598Z,7800
2023-02-12T12:52:05.587Z,7744
2023-02-12T12:53:05.586Z,7736
2023-02-12T12:54:05.545Z,7760
2023-02-12T12:55:05.527Z,7780
2023-02-12T12:56:05.884Z,7812
2023-02-12T12:57:05.226Z,7880
2023-02-12T12:58:05.222Z,7964
2023-02-12T12:59:05.398Z,8000
2023-02-12T13:00:05.341Z,7968
2023-02-12T13:01:05.706Z,7928
2023-02-12T13:02:05.565Z,7880
2023-02-12T13:03:05.267Z,7796
2023-02-12T13:04:05.328Z,7720
2023-02-12T13:05:05.204Z,7716
2023-02-12T13:06:05.704Z,7700
2023-02-12T13:07:05.167Z,7616
2023-02-12T13:08:05.169Z,7496
2023-02-12T13:09:05.124Z,7392
2023-02-12T13:10:05.060Z,7308
2023-02-12T13:11:05.031Z,7240
2023-02-12T13:12:04.998Z,7208
2023-02-12T13:13:05.001Z,7176
2023-02-12T13:14:04.978Z,7128
2023-02-12T13:15:04.977Z,7096
2023-02-12T13:16:05.335Z,7096
2023-02-12T13:17:04.860Z,7116
2023-02-12T13:18:04.836Z,7164
2023-02-12T13:19:04.707Z,7252
2023-02-12T13:20:04.827Z,7332
2023-02-12T13:21:04.510Z,7380
2023-02-12T13:22:04.801Z,7384
2023-02-12T13:23:04.707Z,7344
2023-02-12T13:24:04.695Z,7272
2023-02-12T13:25:04.721Z,7192
2023-02-12T13:26:05.017Z,7152
2023-02-12T13:27:04.582Z,7116
2023-02-12T13:28:04.746Z,7096
2023-02-12T13:29:04.548Z,7104
2023-02-12T13:30:04.527Z,7132
2023-02-12T13:31:24.802Z,7144
2023-02-12T13:32:04.966Z,7128
2023-02-12T13:33:04.389Z,7136
2023-02-12T13:34:04.405Z,7196
2023-02-12T13:35:04.372Z,7212
2023-02-12T13:36:04.806Z,7092
2023-02-12T13:37:04.295Z,6852
2023-02-12T13:38:04.282Z,6636
2023-02-12T13:39:04.234Z,6500
2023-02-12T13:40:04.188Z,6408
2023-02-12T13:41:03.940Z,6288
2023-02-12T13:42:04.135Z,6084
2023-02-12T13:43:04.108Z,5868
2023-02-12T13:44:04.090Z,5720
2023-02-12T13:45:04.081Z,5600
2023-02-12T13:46:04.754Z,5488
2023-02-12T13:47:04.022Z,5388
2023-02-12T13:48:03.973Z,5292
2023-02-12T13:49:03.953Z,5212
2023-02-12T13:50:03.900Z,5144
2023-02-12T13:51:08.150Z,4992
2023-02-12T13:52:03.899Z,4788
2023-02-12T13:53:03.912Z,4556
2023-02-12T13:54:03.822Z,4404
2023-02-12T13:55:03.775Z,4356